Malmo, NE (68040)

10:03 PM CDT on August 27, 2015 (GMT -0500)
County Road R and County Road 21 | | Change Station
CLOSE
Current Station
Personal Weather Station
Location: Colon, NE
Elevation: 1299 ft
Nearby Weather Stations

Elev 1299 ft 41.31 °N, 96.69 °W | Updated 9 seconds ago

Rain
Rain
72.1 °F
Feels Like 72.1 °F
N
7.2
Wind Variable Wind from East
Gusts 7.4 mph

Today
High -- | Low -- °F
--% Chance of Precip.
Yesterday
High -- | Low -- °F
Precip. -- in
6:48 AM 8:08 PM
Waxing Gibbous, 96% visible
Pressure 29.90 in
Visibility 10.0 miles
Clouds Scattered Clouds 5000 ft
Mostly Cloudy 9500 ft
Overcast 12000 ft
Dew Point 69 °F
Humidity 90%
Rainfall 0.00 in
Snow Depth Not available.
UV 0 out of 12
Pollen 8.70 out of 12
Air Quality Not available.
Flu Activity Not available.
METAR KAHQ 280255Z AUTO 13011G17KT 10SM -RA SCT050 BKN095 OVC120 23/20 A2990 RMK AO2 T02250197
Pressure 29.90 in
Visibility 10.0 miles
Clouds Scattered Clouds 5000 ft
Mostly Cloudy 9500 ft
Overcast 12000 ft
Dew Point 69 °F
Humidity 90%
Rainfall 0.00 in
Snow Depth Not available.
UV 0 out of 12
Pollen 8.70 out of 12
Air Quality Not available.
Flu Activity Not available.
METAR KAHQ 280255Z AUTO 13011G17KT 10SM -RA SCT050 BKN095 OVC120 23/20 A2990 RMK AO2 T02250197

10-Day Weather Forecast

×

Almanac

Astronomy

Aug. 27, 2015 Rise Set
Actual Time
Civil Twilight
Nautical Twilight
Astronomical Twilight
Moon
Length of Visible Light
Length of Day
Tomorrow will be .
, % of the Moon is Illuminated

Today's Extremes

State Highs State Lows

Community

WunderPhotos

Upload Photos

1,850,310 photos uploaded!

WunderBlogs® & News

Nearby

Air Quality

  Air Quality AQ Index Pollutant
Not available.

Snow Depth

Station Depth Elevation

Earthquake Activity

City Distance Mag. Time & Date
Minimum magnitude displayed is 2.5.

Coastal Water Temperatures

Place Temperature

Stations

Nearby Weather Stations

Station Location Temp. Windchill Dew Point Humidity Wind Precip. Elev Updated Type